createdAt,value
2018-09-22T00:04:11.685Z,1.60
2018-09-22T00:09:07.341Z,1.50
2018-09-22T00:13:59.921Z,1.70
2018-09-22T00:18:52.458Z,1.87
2018-09-22T00:23:45.165Z,1.67
2018-09-22T00:28:37.755Z,1.67
2018-09-22T00:33:30.317Z,1.60
2018-09-22T00:38:22.897Z,1.53
2018-09-22T00:43:15.509Z,1.50
2018-09-22T00:48:08.068Z,1.50
2018-09-22T00:53:00.625Z,1.70
2018-09-22T00:57:53.260Z,1.83
2018-09-22T01:02:45.782Z,1.70
2018-09-22T01:07:38.337Z,1.93
2018-09-22T01:12:30.994Z,1.73
2018-09-22T01:17:23.732Z,1.87
2018-09-22T01:22:16.354Z,2.00
2018-09-22T01:27:08.922Z,1.80
2018-09-22T01:32:01.821Z,1.90
2018-09-22T01:36:54.381Z,2.10
2018-09-22T01:41:47.158Z,2.13
2018-09-22T01:46:39.735Z,2.13
2018-09-22T01:51:33.036Z,2.00
2018-09-22T01:56:25.582Z,2.17
2018-09-22T02:01:18.407Z,1.90
2018-09-22T02:06:11.039Z,2.20
2018-09-22T02:11:03.619Z,2.30
2018-09-22T02:15:56.359Z,2.30
2018-09-22T02:20:48.914Z,2.67
2018-09-22T02:25:41.637Z,2.43
2018-09-22T02:30:34.195Z,2.10
2018-09-22T02:35:26.778Z,2.13
2018-09-22T02:40:19.356Z,2.47
2018-09-22T02:45:11.944Z,2.50
2018-09-22T02:50:04.764Z,2.30
2018-09-22T02:54:57.367Z,2.23
2018-09-22T02:59:50.024Z,2.33
2018-09-22T03:04:42.644Z,2.30
2018-09-22T03:09:35.250Z,2.40
2018-09-22T03:14:27.860Z,2.33
2018-09-22T03:19:20.419Z,2.20
2018-09-22T03:24:13.030Z,2.30
2018-09-22T03:29:05.678Z,2.47
2018-09-22T03:33:58.240Z,2.20
2018-09-22T03:38:50.910Z,2.37
2018-09-22T03:43:43.545Z,3.00
2018-09-22T03:48:36.204Z,2.17
2018-09-22T03:53:28.805Z,2.50
2018-09-22T03:58:21.409Z,2.23
2018-09-22T04:03:14.017Z,2.47
2018-09-22T04:08:06.727Z,2.50
2018-09-22T04:12:59.443Z,2.30
2018-09-22T04:17:52.070Z,2.03
2018-09-22T04:22:44.690Z,2.10
2018-09-22T04:27:37.344Z,2.03
2018-09-22T04:32:29.986Z,2.00
2018-09-22T04:37:22.542Z,2.33
2018-09-22T04:42:15.100Z,2.30
2018-09-22T04:47:07.662Z,2.27
2018-09-22T04:52:00.487Z,2.20
2018-09-22T04:56:53.552Z,2.07
2018-09-22T05:01:46.096Z,2.00
2018-09-22T05:06:38.716Z,1.90
2018-09-22T05:11:31.271Z,2.50
2018-09-22T05:16:23.928Z,1.90
2018-09-22T05:21:16.497Z,2.20
2018-09-22T05:26:09.079Z,1.87
2018-09-22T05:31:01.728Z,2.20
2018-09-22T05:35:54.331Z,2.00
2018-09-22T05:40:46.903Z,2.10
2018-09-22T05:45:39.523Z,2.10
2018-09-22T05:50:32.103Z,2.30
2018-09-22T05:55:24.727Z,2.00
2018-09-22T06:00:17.263Z,2.10
2018-09-22T06:05:09.970Z,2.00
2018-09-22T06:10:02.688Z,1.87
2018-09-22T06:14:55.259Z,2.50
2018-09-22T06:19:47.831Z,2.30
2018-09-22T06:24:40.623Z,1.90
2018-09-22T06:29:33.681Z,2.50
2018-09-22T06:34:26.699Z,2.17
2018-09-22T06:39:19.568Z,2.30
2018-09-22T06:44:12.564Z,1.80
2018-09-22T06:49:05.362Z,1.90
2018-09-22T06:53:58.303Z,2.40
2018-09-22T06:58:51.180Z,1.80
2018-09-22T07:03:44.070Z,1.80
2018-09-22T07:08:36.667Z,2.03
2018-09-22T07:13:29.218Z,1.70
2018-09-22T07:18:21.816Z,1.40
2018-09-22T07:23:15.892Z,2.30
2018-09-22T07:28:08.555Z,1.80
2018-09-22T07:33:01.283Z,1.93
2018-09-22T07:37:53.950Z,1.80
2018-09-22T07:42:46.542Z,2.13
2018-09-22T07:47:39.120Z,1.80
2018-09-22T07:52:31.718Z,2.13
2018-09-22T07:57:24.335Z,2.07
2018-09-22T08:02:17.062Z,2.20
2018-09-22T08:07:09.690Z,2.10
2018-09-22T08:12:02.353Z,2.70
2018-09-22T08:16:55.004Z,1.77
2018-09-22T08:21:47.534Z,2.27
2018-09-22T08:26:40.090Z,2.30
2018-09-22T08:31:33.230Z,2.07
2018-09-22T08:36:26.040Z,2.53
2018-09-22T08:41:18.454Z,2.50
2018-09-22T08:46:11.052Z,2.07
2018-09-22T08:51:03.719Z,2.30
2018-09-22T08:55:56.283Z,2.20
2018-09-22T09:00:48.888Z,2.20
2018-09-22T09:05:41.448Z,1.63
2018-09-22T09:10:34.150Z,1.80
2018-09-22T09:15:27.071Z,1.67
2018-09-22T09:20:19.799Z,1.63
2018-09-22T09:25:12.631Z,2.27
2018-09-22T09:30:05.457Z,1.80
2018-09-22T09:34:58.350Z,1.60
2018-09-22T09:39:51.164Z,1.80
2018-09-22T09:44:44.329Z,1.60
2018-09-22T09:49:37.054Z,1.80
2018-09-22T09:54:29.911Z,1.40
2018-09-22T09:59:22.660Z,1.50
2018-09-22T10:04:15.459Z,1.60
2018-09-22T10:09:09.051Z,1.80
2018-09-22T10:14:01.905Z,1.43
2018-09-22T10:18:54.658Z,1.70
2018-09-22T10:23:47.275Z,1.53
2018-09-22T10:28:39.884Z,1.60
2018-09-22T10:33:32.481Z,1.50
2018-09-22T10:38:25.034Z,1.50
2018-09-22T10:43:17.591Z,1.70
2018-09-22T10:48:10.132Z,1.77
2018-09-22T10:53:02.804Z,1.70
2018-09-22T10:57:55.533Z,1.70
2018-09-22T11:02:48.156Z,1.53
2018-09-22T11:07:40.799Z,1.87
2018-09-22T11:12:33.385Z,1.60
2018-09-22T11:17:26.188Z,1.43
2018-09-22T11:23:43.608Z,1.50
2018-09-22T11:28:36.503Z,1.63
2018-09-22T11:33:29.215Z,2.00
2018-09-22T11:38:21.977Z,1.70
2018-09-22T11:43:14.734Z,2.03
2018-09-22T11:48:07.489Z,2.13
2018-09-22T11:58:07.316Z,2.10
2018-09-22T12:03:00.085Z,2.30
2018-09-22T12:07:52.865Z,2.00
2018-09-22T12:12:45.537Z,2.43
2018-09-22T12:17:38.506Z,1.93
2018-09-22T12:22:31.231Z,2.30
2018-09-22T12:27:24.128Z,1.97
2018-09-22T12:32:17.142Z,2.10
2018-09-22T12:37:09.903Z,2.20
2018-09-22T12:42:02.615Z,2.40
2018-09-22T12:46:55.532Z,2.10
2018-09-22T12:51:48.424Z,1.70
2018-09-22T12:56:41.077Z,1.97
2018-09-22T13:01:33.810Z,2.20
2018-09-22T13:06:26.487Z,2.10
2018-09-22T13:11:19.692Z,1.97
2018-09-22T13:16:13.398Z,1.80
2018-09-22T13:21:06.156Z,2.20
2018-09-22T13:25:58.876Z,1.57
2018-09-22T13:30:51.495Z,1.97
2018-09-22T13:35:44.286Z,1.63
2018-09-22T13:40:36.836Z,1.80
2018-09-22T13:45:29.398Z,1.90
2018-09-22T13:50:21.989Z,1.80
2018-09-22T13:55:14.594Z,2.07
2018-09-22T14:00:07.202Z,2.57
2018-09-22T14:04:59.875Z,2.20
2018-09-22T14:09:52.476Z,2.17
2018-09-22T14:14:45.042Z,2.07
2018-09-22T14:19:37.610Z,1.63
2018-09-22T14:24:30.184Z,1.70
2018-09-22T14:29:22.767Z,1.97
2018-09-22T14:34:15.487Z,1.97
2018-09-22T14:39:08.342Z,2.20
2018-09-22T14:44:01.022Z,1.80
2018-09-22T14:48:53.591Z,1.87
2018-09-22T14:53:46.625Z,1.90
2018-09-22T14:58:39.221Z,1.40
2018-09-22T15:03:31.839Z,1.40
2018-09-22T15:08:24.452Z,1.50
2018-09-22T15:13:16.933Z,1.40
2018-09-22T15:18:09.508Z,1.60
2018-09-22T15:23:02.114Z,1.40
2018-09-22T15:27:54.703Z,1.40
2018-09-22T15:32:47.355Z,1.60
2018-09-22T15:37:40.014Z,1.80
2018-09-22T15:42:32.619Z,1.87
2018-09-22T15:47:25.187Z,1.80
2018-09-22T15:52:17.831Z,1.47
2018-09-22T15:57:10.445Z,2.17
2018-09-22T16:02:03.222Z,1.70
2018-09-22T16:06:55.987Z,1.80
2018-09-22T16:11:48.691Z,1.50
2018-09-22T16:16:41.282Z,1.53
2018-09-22T16:21:33.882Z,1.40
2018-09-22T16:26:26.575Z,1.60
2018-09-22T16:31:19.164Z,1.90
2018-09-22T16:36:11.765Z,1.40
2018-09-22T16:41:04.356Z,1.50
2018-09-22T16:45:56.963Z,2.17
2018-09-22T16:50:49.693Z,1.60
2018-09-22T16:55:42.226Z,1.60
2018-09-22T17:00:34.954Z,1.50
2018-09-22T17:05:27.483Z,1.70
2018-09-22T17:10:20.184Z,1.80
2018-09-22T17:15:12.894Z,1.97
2018-09-22T17:20:05.479Z,1.80
2018-09-22T17:24:57.993Z,1.70
2018-09-22T17:29:50.932Z,2.00
2018-09-22T17:34:43.526Z,1.70
2018-09-22T17:39:36.070Z,1.47
2018-09-22T17:44:28.742Z,1.70
2018-09-22T17:49:21.259Z,1.80
2018-09-22T17:54:14.084Z,1.93
2018-09-22T17:59:06.726Z,1.93
2018-09-22T18:03:59.393Z,1.90
2018-09-22T18:08:51.982Z,1.80
2018-09-22T18:13:44.548Z,2.20
2018-09-22T18:18:37.106Z,2.50
2018-09-22T18:23:29.792Z,2.23
2018-09-22T18:28:22.363Z,2.00
2018-09-22T18:33:15.058Z,1.83
2018-09-22T18:38:07.619Z,1.80
2018-09-22T18:43:00.216Z,1.90
2018-09-22T18:47:52.909Z,1.90
2018-09-22T18:52:45.482Z,1.70
2018-09-22T18:57:38.078Z,1.70
2018-09-22T19:02:30.610Z,1.90
2018-09-22T19:07:23.164Z,1.60
2018-09-22T19:12:15.758Z,1.90
2018-09-22T19:17:12.034Z,1.80
2018-09-22T19:22:06.515Z,1.63
2018-09-22T19:27:05.783Z,1.67
2018-09-22T19:32:02.077Z,1.73
2018-09-22T19:37:01.456Z,1.70
2018-09-22T19:41:57.043Z,1.90
2018-09-22T19:46:53.603Z,1.70
2018-09-22T19:51:51.570Z,1.30
2018-09-22T19:56:44.147Z,2.00
2018-09-22T20:01:36.739Z,1.70
2018-09-22T20:06:29.311Z,2.00
2018-09-22T20:11:21.983Z,1.97
2018-09-22T20:16:14.573Z,1.60
2018-09-22T20:21:07.288Z,1.70
2018-09-22T20:25:59.944Z,2.00
2018-09-22T20:30:52.524Z,1.70
2018-09-22T20:35:45.201Z,2.20
2018-09-22T20:40:37.736Z,2.10
2018-09-22T20:45:30.323Z,2.07
2018-09-22T20:50:23.130Z,2.37
2018-09-22T20:55:15.989Z,2.10
2018-09-22T21:00:09.517Z,2.30
2018-09-22T21:05:02.180Z,2.53
2018-09-22T21:09:54.775Z,2.60
2018-09-22T21:14:47.487Z,2.73
2018-09-22T21:19:40.090Z,2.37
2018-09-22T21:24:32.685Z,2.27
2018-09-22T21:29:25.268Z,2.10
2018-09-22T21:34:17.937Z,2.10
2018-09-22T21:39:10.916Z,1.93
2018-09-22T21:44:03.700Z,2.30
2018-09-22T21:48:56.343Z,1.90
2018-09-22T21:53:48.915Z,2.73
2018-09-22T21:58:41.485Z,2.20
2018-09-22T22:03:34.094Z,2.13
2018-09-22T22:08:26.822Z,2.30
2018-09-22T22:13:19.475Z,1.97
2018-09-22T22:18:12.078Z,3.50
2018-09-22T22:23:04.649Z,4.13
2018-09-22T22:27:57.311Z,2.67
2018-09-22T22:32:50.048Z,2.80
2018-09-22T22:37:42.813Z,2.63
2018-09-22T22:42:35.496Z,2.20
2018-09-22T22:47:28.329Z,2.20
2018-09-22T22:52:21.035Z,2.20
2018-09-22T22:57:13.707Z,2.17
2018-09-22T23:02:06.530Z,2.00
2018-09-22T23:06:59.159Z,2.27
2018-09-22T23:11:51.841Z,2.10
2018-09-22T23:16:44.506Z,2.40
2018-09-22T23:21:37.129Z,2.47
2018-09-22T23:26:29.875Z,2.40
2018-09-22T23:31:22.483Z,2.20
2018-09-22T23:36:15.099Z,2.70
2018-09-22T23:41:07.763Z,2.30
2018-09-22T23:46:00.379Z,2.60
2018-09-22T23:50:53.016Z,2.70
2018-09-22T23:55:45.579Z,2.47
